Time;durP1;ratioP1;P1;durP2;ratioP2;P2;SDS_P1;SDS_P2;PMS_P1;PMS_P2;Temp;Humidity;BMP_temperature;BMP_pressure;BME280_temperature;BME280_humidity;BME280_pressure;Samples;Min_cycle;Max_cycle;Signal;HPM_P1;HPM_P2
2022/06/05 00:00:16;;;;;;;22.85;12.38;;;;;;;-144.47;57.38;53263.28;5002261;28;20033;-68
2022/06/05 00:02:44;;;;;;;21.67;11.63;;;;;;;-144.47;57.39;53287.13;5006716;28;20061;-68
2022/06/05 00:05:15;;;;;;;20.38;12.32;;;;;;;-144.47;57.43;53273.22;5008012;28;20111;-67
2022/06/05 00:07:51;;;;;;;24.33;12.35;;;;;;;-144.47;57.39;53293.06;5001723;28;20057;-68
2022/06/05 00:10:31;;;;;;;20.17;11.68;;;;;;;-144.47;57.39;53291.09;5003449;28;20033;-69
2022/06/05 00:13:09;;;;;;;25.42;11.95;;;;;;;-144.47;57.59;53303.00;5003549;28;20030;-69
2022/06/05 00:15:34;;;;;;;21.58;11.23;;;;;;;-144.47;57.64;53241.44;5005337;28;20032;-68
2022/06/05 00:18:01;;;;;;;23.60;12.23;;;;;;;-144.47;57.67;53289.09;5004815;28;20029;-68
2022/06/05 00:20:26;;;;;;;19.13;10.93;;;;;;;-144.47;57.44;53291.09;5003694;28;20036;-66
2022/06/05 00:22:52;;;;;;;15.65;9.82;;;;;;;-144.47;57.49;53277.19;5002272;28;20013;-68
2022/06/05 00:25:17;;;;;;;17.83;10.88;;;;;;;-144.47;57.50;53287.13;4989491;28;20068;-66
2022/06/05 00:27:46;;;;;;;20.52;11.52;;;;;;;-144.47;57.54;53287.13;4994731;28;20126;-66
2022/06/05 00:30:11;;;;;;;16.13;10.35;;;;;;;-144.47;57.55;53291.09;5008726;28;20491;-68
2022/06/05 00:33:09;;;;;;;17.15;10.80;;;;;;;-144.47;57.71;53281.16;5010991;28;20117;-69
2022/06/05 00:35:44;;;;;;;15.70;10.80;;;;;;;-144.47;57.61;53285.13;5010535;28;20062;-69
2022/06/05 00:38:21;;;;;;;14.95;10.07;;;;;;;-144.47;57.63;53281.16;5011317;28;20030;-67
2022/06/05 00:40:58;;;;;;;15.65;9.93;;;;;;;-144.47;57.46;53247.38;5012033;28;20021;-67
2022/06/05 00:43:24;;;;;;;17.95;10.55;;;;;;;-144.47;57.63;53316.91;5012410;28;20506;-69
2022/06/05 00:45:51;;;;;;;20.13;11.68;;;;;;;-144.47;57.93;53237.44;4994422;28;20029;-68
2022/06/05 00:48:17;;;;;;;16.83;10.60;;;;;;;-144.47;57.83;53281.16;5011582;28;20037;-69
2022/06/05 00:50:44;;;;;;;17.80;11.55;;;;;;;-144.47;57.70;53263.28;5010623;28;20025;-68
2022/06/05 00:53:11;;;;;;;18.13;11.63;;;;;;;-144.47;57.92;53269.22;4994465;28;20084;-68
2022/06/05 00:55:45;;;;;;;18.30;10.85;;;;;;;-144.47;57.87;53316.91;4995074;28;20025;-67
2022/06/05 00:58:11;;;;;;;22.60;10.82;;;;;;;-144.47;58.07;53269.22;5010088;28;20502;-68
2022/06/05 01:00:41;;;;;;;20.25;10.80;;;;;;;-144.47;58.06;53261.28;5011251;28;20109;-68
2022/06/05 01:03:09;;;;;;;26.27;10.65;;;;;;;-144.47;58.24;53328.81;5010623;28;20033;-68
2022/06/05 01:05:36;;;;;;;18.23;12.57;;;;;;;-144.47;58.23;53267.25;5012318;28;20025;-68
2022/06/05 01:08:02;;;;;;;20.35;11.52;;;;;;;-144.47;58.30;53269.22;5010750;28;20103;-67
2022/06/05 01:10:36;;;;;;;19.70;11.38;;;;;;;-144.47;58.40;53271.22;5009886;28;20048;-68
2022/06/05 01:13:12;;;;;;;17.27;10.02;;;;;;;-144.47;58.44;53249.38;5010414;28;20506;-67
2022/06/05 01:15:57;;;;;;;19.40;11.93;;;;;;;-144.47;58.53;53277.19;4993669;28;20030;-68
2022/06/05 01:18:48;;;;;;;21.20;11.73;;;;;;;-144.47;58.38;53277.19;5010919;28;20041;-68
2022/06/05 01:21:32;;;;;;;17.67;10.23;;;;;;;-144.47;58.43;53263.28;5002085;28;20030;-68
2022/06/05 01:24:29;;;;;;;19.20;11.32;;;;;;;-144.47;58.70;53277.19;4989548;28;20030;-69
2022/06/05 01:27:01;;;;;;;19.33;10.88;;;;;;;-144.47;58.66;53271.22;5009229;28;20498;-66
2022/06/05 01:29:37;;;;;;;14.00;10.10;;;;;;;-144.47;58.87;53301.03;5002712;28;20040;-69
2022/06/05 01:32:18;;;;;;;17.92;10.35;;;;;;;-144.47;58.80;53285.13;5010784;28;20022;-69
2022/06/05 01:34:44;;;;;;;18.55;10.73;;;;;;;-144.47;58.73;53310.94;5011712;28;20126;-68
2022/06/05 01:37:17;;;;;;;13.55;8.63;;;;;;;-144.47;58.51;53295.06;5011440;28;20460;-67
2022/06/05 01:39:51;;;;;;;17.20;9.75;;;;;;;-144.47;58.36;53265.25;5008227;28;20080;-68
2022/06/05 01:42:31;;;;;;;14.77;8.93;;;;;;;-144.47;58.12;53261.28;5011047;28;20022;-68
2022/06/05 01:45:18;;;;;;;12.85;8.48;;;;;;;-144.47;57.81;53269.22;5010878;28;20492;-68
2022/06/05 01:47:49;;;;;;;13.68;8.00;;;;;;;-144.47;57.76;53293.06;5011190;28;20040;-68
2022/06/05 01:50:20;;;;;;;17.50;9.23;;;;;;;-144.47;57.85;53283.13;5048689;22;20107;-65
2022/06/05 01:53:06;;;;;;;11.27;8.15;;;;;;;-144.47;57.81;53318.91;5029917;28;20403;-67
2022/06/05 01:55:41;;;;;;;13.05;8.32;;;;;;;-144.47;57.88;53308.97;5012902;28;20052;-69
2022/06/05 01:58:11;;;;;;;17.08;8.68;;;;;;;-144.47;57.73;53279.16;5029660;28;20029;-69
2022/06/05 02:00:36;;;;;;;18.10;8.63;;;;;;;-144.47;57.85;53273.22;5029897;28;20470;-68
2022/06/05 02:03:11;;;;;;;16.02;8.70;;;;;;;-144.47;57.74;53261.28;5031334;28;20133;-68
2022/06/05 02:05:48;;;;;;;18.05;8.40;;;;;;;-144.47;58.12;53285.13;5030682;28;20096;-69
2022/06/05 02:08:36;;;;;;;14.05;8.48;;;;;;;-144.47;58.05;53299.03;5030866;28;20162;-66
2022/06/05 02:11:12;;;;;;;12.23;8.07;;;;;;;-144.47;58.18;53295.06;5028098;28;20037;-67
2022/06/05 02:13:37;;;;;;;14.57;8.13;;;;;;;-144.47;58.19;53289.09;5029732;28;20021;-66
2022/06/05 02:16:03;;;;;;;14.20;8.07;;;;;;;-144.47;58.37;53273.22;5029335;28;20033;-71
2022/06/05 02:18:29;;;;;;;15.55;9.20;;;;;;;-144.47;58.56;53253.34;5029974;28;20029;-70
2022/06/05 02:20:54;;;;;;;16.67;8.30;;;;;;;-144.47;58.43;53261.28;5031228;28;20036;-66
2022/06/05 02:23:23;;;;;;;17.55;9.00;;;;;;;-144.47;58.61;53257.31;5028763;28;20094;-69
2022/06/05 02:25:48;;;;;;;;;;;;;;;-144.47;58.50;53297.03;5025327;28;20080;-69
2022/06/05 02:28:16;;;;;;;15.75;8.40;;;;;;;-144.47;58.65;53267.25;5036424;28;20382;-67
2022/06/05 02:30:57;;;;;;;15.80;7.88;;;;;;;-144.47;58.85;53279.16;5029468;28;20032;-67
2022/06/05 02:33:44;;;;;;;15.95;8.23;;;;;;;-144.47;58.98;53299.03;5028729;28;20107;-68
2022/06/05 02:36:38;;;;;;;23.08;8.68;;;;;;;-144.47;59.18;53281.16;5030560;28;20082;-65
2022/06/05 02:39:16;;;;;;;12.18;8.25;;;;;;;-144.47;59.20;53318.91;5029539;28;20025;-66
2022/06/05 02:41:59;;;;;;;13.70;8.38;;;;;;;-144.47;59.41;53312.94;5029006;28;20463;-66
2022/06/05 02:44:52;;;;;;;14.65;8.57;;;;;;;-144.47;59.71;53293.06;5029696;28;20564;-68
2022/06/05 02:47:53;;;;;;;21.08;8.32;;;;;;;-144.47;59.60;53289.09;5030637;28;20037;-68
2022/06/05 02:50:43;;;;;;;12.38;6.88;;;;;;;-144.47;59.56;53308.97;5020061;28;20028;-66
2022/06/05 02:53:11;;;;;;;16.20;8.15;;;;;;;-144.47;59.58;53299.03;5031425;28;20029;-64
2022/06/05 02:55:37;;;;;;;15.95;8.40;;;;;;;-144.47;59.52;53301.03;5031506;28;20029;-66
2022/06/05 02:58:02;;;;;;;11.13;6.97;;;;;;;-144.47;59.73;53257.31;5032118;28;20108;-66
2022/06/05 03:00:31;;;;;;;10.15;7.03;;;;;;;-144.47;59.47;53295.06;5030515;28;20029;-68
2022/06/05 03:05:41;;;;;;;12.23;7.03;;;;;;;-144.47;59.47;53324.84;5030182;28;20561;-68
2022/06/05 03:08:09;;;;;;;10.48;7.07;;;;;;;-144.47;59.44;53285.13;5029882;28;20022;-68
2022/06/05 03:10:36;;;;;;;12.80;7.43;;;;;;;-144.47;59.35;53306.97;5027834;28;20025;-69
2022/06/05 03:13:01;;;;;;;11.60;7.00;;;;;;;-144.47;59.39;53312.94;5029073;28;20045;-68
2022/06/05 03:15:28;;;;;;;11.30;6.47;;;;;;;-144.47;59.14;53289.09;5028161;28;20064;-68
2022/06/05 03:17:53;;;;;;;14.02;7.40;;;;;;;-144.47;59.15;53289.09;5029793;28;20633;-68
2022/06/05 03:20:19;;;;;;;13.48;7.03;;;;;;;-144.47;59.26;53314.91;5028586;28;20219;-68
2022/06/05 03:22:45;;;;;;;18.67;6.70;;;;;;;-144.47;59.33;53332.81;5029241;28;20021;-66
2022/06/05 03:25:16;;;;;;;11.75;6.97;;;;;;;-144.47;59.16;53289.09;5021161;28;20033;-68
2022/06/05 03:27:42;;;;;;;16.83;7.70;;;;;;;-144.47;59.15;53293.06;5031344;28;20174;-68
2022/06/05 03:30:08;;;;;;;10.90;6.70;;;;;;;-144.47;59.05;53326.84;5030832;28;20108;-67
2022/06/05 03:32:34;;;;;;;11.63;7.75;;;;;;;-144.47;59.10;53249.38;5019985;28;20029;-67
2022/06/05 03:34:59;;;;;;;12.30;6.10;;;;;;;-144.47;58.99;53297.03;5028247;28;20530;-67
2022/06/05 03:37:25;;;;;;;11.82;6.88;;;;;;;-144.47;59.03;53295.06;5029094;28;20021;-66
2022/06/05 03:39:50;;;;;;;12.05;6.97;;;;;;;-144.47;58.87;53295.06;5027703;28;20025;-68
2022/06/05 03:42:16;;;;;;;12.60;6.60;;;;;;;-144.47;58.93;53297.03;5028553;28;20024;-67
2022/06/05 03:44:43;;;;;;;14.60;6.75;;;;;;;-144.47;59.03;53249.38;5028137;28;20021;-66
2022/06/05 03:47:12;;;;;;;14.50;6.97;;;;;;;-144.47;58.98;53265.25;5027463;28;20025;-65
2022/06/05 03:49:37;;;;;;;12.57;7.07;;;;;;;-144.47;58.98;53314.91;5027306;28;20207;-69
2022/06/05 03:52:03;;;;;;;11.70;6.78;;;;;;;-144.47;58.91;53297.03;5028336;28;20116;-67
2022/06/05 03:54:29;;;;;;;13.55;6.90;;;;;;;-144.47;59.03;53279.16;5028218;28;20155;-68
2022/06/05 03:56:54;;;;;;;13.45;6.93;;;;;;;-144.47;58.89;53316.91;5028033;28;20104;-66
2022/06/05 03:59:20;;;;;;;12.15;6.70;;;;;;;-144.47;58.90;53285.13;5027164;28;20025;-67
2022/06/05 04:01:45;;;;;;;14.57;7.05;;;;;;;-144.47;58.88;53293.06;5027508;28;20057;-65
2022/06/05 04:04:11;;;;;;;15.88;7.43;;;;;;;-144.47;58.91;53259.31;5029162;28;20759;-68
2022/06/05 04:06:36;;;;;;;11.55;6.25;;;;;;;-144.47;58.85;53259.31;5011056;28;20056;-65
2022/06/05 04:09:05;;;;;;;10.80;6.65;;;;;;;-144.47;59.00;53279.16;5028405;28;20032;-66
2022/06/05 04:11:34;;;;;;;13.05;7.07;;;;;;;-144.47;58.87;53293.06;5028025;28;20073;-67
2022/06/05 04:13:59;;;;;;;21.52;6.60;;;;;;;-144.47;58.80;53259.31;5028104;28;20394;-67
2022/06/05 04:16:29;;;;;;;15.73;6.70;;;;;;;-144.47;58.85;53297.03;5028537;28;20489;-65
2022/06/05 04:18:55;;;;;;;13.13;6.68;;;;;;;-144.47;58.59;53303.00;5028827;28;20497;-68
2022/06/05 04:21:26;;;;;;;12.82;6.32;;;;;;;-144.47;58.42;53275.19;5029584;28;20108;-68
2022/06/05 04:23:53;;;;;;;10.15;6.75;;;;;;;-144.47;58.39;53301.03;5029955;28;20045;-68
2022/06/05 04:26:22;;;;;;;11.23;7.05;;;;;;;-144.47;58.30;53324.84;5028124;28;20029;-69
2022/06/05 04:28:48;;;;;;;10.20;6.60;;;;;;;-144.47;58.39;53281.16;5033422;28;20143;-66
2022/06/05 04:31:21;;;;;;;20.23;7.55;;;;;;;-144.47;58.09;53275.19;5010522;28;20471;-65
2022/06/05 04:33:48;;;;;;;11.25;6.32;;;;;;;-144.47;58.01;53265.25;5016548;28;20021;-67
2022/06/05 04:36:13;;;;;;;17.83;6.82;;;;;;;-144.47;58.01;53273.22;5010463;28;20475;-69
2022/06/05 04:38:39;;;;;;;11.13;6.45;;;;;;;-144.47;57.93;53281.16;5027225;28;20079;-70
2022/06/05 04:41:05;;;;;;;11.93;7.00;;;;;;;-144.47;57.83;53265.25;5028721;28;20061;-66
2022/06/05 04:43:30;;;;;;;11.93;6.68;;;;;;;-144.47;57.98;53283.13;5026596;28;20487;-69
2022/06/05 04:45:56;;;;;;;11.70;6.45;;;;;;;-144.47;57.83;53267.25;5029114;28;20582;-68
2022/06/05 04:48:21;;;;;;;11.55;7.20;;;;;;;-144.47;57.83;53314.91;5014510;28;20060;-68
2022/06/05 04:50:46;;;;;;;11.57;6.20;;;;;;;-144.47;57.96;53273.22;5029775;28;20037;-66
2022/06/05 04:53:12;;;;;;;11.65;6.20;;;;;;;-144.47;58.09;53281.16;5031282;28;20139;-67
2022/06/05 04:55:38;;;;;;;11.85;6.53;;;;;;;-144.47;57.96;53312.94;5031373;28;20079;-68
2022/06/05 04:58:04;;;;;;;16.25;6.47;;;;;;;-144.47;58.11;53253.34;5030952;28;20025;-66
2022/06/05 05:00:30;;;;;;;10.93;6.40;;;;;;;-144.47;57.87;53259.31;5029698;28;20038;-68
2022/06/05 05:02:55;;;;;;;18.67;7.18;;;;;;;-144.47;57.81;53314.91;5032358;28;20064;-67
2022/06/05 05:05:20;;;;;;;11.38;6.55;;;;;;;-144.47;57.81;53293.06;5033113;28;20021;-71
2022/06/05 05:07:46;;;;;;;11.57;6.28;;;;;;;-144.47;57.95;53269.22;5014849;28;20053;-66
2022/06/05 05:10:11;;;;;;;13.38;7.35;;;;;;;-144.47;57.85;53281.16;5031754;28;20056;-70
2022/06/05 05:12:37;;;;;;;13.95;6.57;;;;;;;-144.47;57.61;53295.06;5030513;28;20021;-69
2022/06/05 05:15:03;;;;;;;13.93;7.03;;;;;;;-144.47;57.63;53289.09;5030330;28;20045;-69
2022/06/05 05:17:29;;;;;;;10.77;7.30;;;;;;;-144.47;57.54;53281.16;5030408;28;20037;-69
2022/06/05 05:19:55;;;;;;;10.02;7.25;;;;;;;-144.47;57.81;53305.00;5031141;28;20079;-68
2022/06/05 05:22:21;;;;;;;14.88;7.05;;;;;;;-144.47;57.68;53336.78;5029608;28;20025;-69
2022/06/05 05:24:47;;;;;;;11.82;6.65;;;;;;;-144.47;57.79;53237.44;5026240;28;20112;-66
2022/06/05 05:27:13;;;;;;;12.90;7.13;;;;;;;-144.47;57.67;53243.41;5030138;28;20056;-67
2022/06/05 05:29:40;;;;;;;11.00;6.90;;;;;;;-144.47;57.25;53267.25;5035691;28;20068;-67
2022/06/05 05:32:07;;;;;;;12.18;6.93;;;;;;;-144.47;57.31;53277.19;5026619;28;20029;-64
2022/06/05 05:34:32;;;;;;;12.95;7.32;;;;;;;-144.47;57.44;53273.22;5031667;28;20359;-68
2022/06/05 05:36:58;;;;;;;14.13;7.32;;;;;;;-144.47;57.66;53249.38;5030976;28;20025;-68
2022/06/05 05:42:09;;;;;;;13.77;7.03;;;;;;;-144.47;57.08;53269.22;5030894;28;20219;-66
2022/06/05 05:44:38;;;;;;;16.88;7.60;;;;;;;-144.47;57.02;53303.00;5031068;28;20103;-69
2022/06/05 05:47:06;;;;;;;12.98;7.32;;;;;;;-144.47;57.34;53281.16;5031528;28;20398;-69
2022/06/05 05:49:32;;;;;;;11.32;6.82;;;;;;;-144.47;56.81;53249.38;5030608;28;20029;-68
2022/06/05 05:51:57;;;;;;;13.82;7.47;;;;;;;-144.47;56.98;53285.13;5030431;28;20024;-65
2022/06/05 05:54:23;;;;;;;13.13;8.32;;;;;;;-144.47;56.77;53245.41;5029789;28;20514;-69
2022/06/05 05:56:48;;;;;;;11.35;7.38;;;;;;;-144.47;57.06;53241.44;5030075;28;20452;-65
2022/06/05 05:59:13;;;;;;;22.60;8.32;;;;;;;-144.47;56.56;53263.28;5027274;28;20472;-69
2022/06/05 06:01:39;;;;;;;15.18;7.18;;;;;;;-144.47;56.51;53245.41;5030441;28;20395;-68
2022/06/05 06:04:05;;;;;;;13.45;8.18;;;;;;;-144.47;56.44;53265.25;5030820;28;20033;-68
2022/06/05 06:06:33;;;;;;;14.27;7.93;;;;;;;-144.47;56.62;53251.34;5013158;28;20029;-68
2022/06/05 06:08:59;;;;;;;11.38;7.53;;;;;;;-144.47;56.43;53275.19;5030291;28;20029;-67
2022/06/05 06:11:25;;;;;;;13.30;8.10;;;;;;;-144.47;56.39;53265.25;5031008;28;20044;-68
2022/06/05 06:13:51;;;;;;;17.45;7.85;;;;;;;-144.47;56.22;53251.34;5030316;28;20025;-68
2022/06/05 06:16:17;;;;;;;10.13;7.40;;;;;;;-144.47;56.22;53281.16;5030371;28;20048;-64
2022/06/05 06:18:43;;;;;;;13.10;7.47;;;;;;;-144.47;56.00;53283.13;5031618;28;20044;-67
2022/06/05 06:21:08;;;;;;;18.60;8.77;;;;;;;-144.47;56.39;53229.50;5032551;28;20467;-65
2022/06/05 06:23:34;;;;;;;13.35;7.75;;;;;;;-144.47;56.29;53239.44;5031238;28;20537;-69
2022/06/05 06:26:03;;;;;;;12.00;7.70;;;;;;;-144.47;55.70;53283.13;5031662;28;20120;-68
2022/06/05 06:28:29;;;;;;;13.15;8.65;;;;;;;-144.47;56.19;53261.28;5032232;28;20135;-66
2022/06/05 06:30:54;;;;;;;17.70;7.45;;;;;;;-144.47;55.51;53241.44;5029928;28;20117;-69
2022/06/05 06:33:19;;;;;;;16.15;8.63;;;;;;;-144.47;55.48;53257.31;5030559;28;20056;-69
2022/06/05 06:35:45;;;;;;;18.20;9.15;;;;;;;-144.47;55.72;53267.25;5030456;28;20049;-68
2022/06/05 06:38:10;;;;;;;18.35;8.80;;;;;;;-144.47;55.32;53241.44;5029230;28;20060;-71
2022/06/05 06:40:36;;;;;;;13.40;8.77;;;;;;;-144.47;55.03;53259.31;5030251;28;20059;-67
2022/06/05 06:43:02;;;;;;;15.18;9.02;;;;;;;-144.47;54.83;53269.22;5012936;28;20368;-70
2022/06/05 06:45:28;;;;;;;15.32;8.57;;;;;;;-144.47;54.60;53281.16;5029317;28;20037;-66
2022/06/05 06:47:53;;;;;;;16.38;9.05;;;;;;;-144.47;54.58;53257.31;5031161;28;20026;-69
2022/06/05 06:50:19;;;;;;;12.80;8.10;;;;;;;-144.47;54.82;53233.47;5028474;28;20026;-68
2022/06/05 06:52:44;;;;;;;13.93;8.77;;;;;;;-144.47;54.18;53219.56;5029123;28;20095;-68
2022/06/05 06:55:16;;;;;;;15.38;9.80;;;;;;;-144.47;54.08;53261.28;5029758;28;20084;-67
2022/06/05 06:57:42;;;;;;;13.00;8.75;;;;;;;-144.47;54.13;53209.66;5028931;28;20502;-68
2022/06/05 07:00:08;;;;;;;16.90;9.45;;;;;;;-144.47;53.54;53201.69;5021257;28;20029;-69
2022/06/05 07:02:33;;;;;;;14.65;8.45;;;;;;;-144.47;53.69;53237.44;5027992;28;20021;-68
2022/06/05 07:04:59;;;;;;;13.57;8.35;;;;;;;-144.47;53.26;53253.34;5028332;28;20025;-66
2022/06/05 07:07:24;;;;;;;15.32;8.93;;;;;;;-144.47;53.32;53259.31;5024933;28;20026;-65
2022/06/05 07:09:49;;;;;;;11.90;7.80;;;;;;;-144.47;53.33;53241.44;5019658;28;20092;-68
2022/06/05 07:12:17;;;;;;;11.93;7.97;;;;;;;-144.47;53.12;53229.50;5024202;28;20065;-65
2022/06/05 07:14:43;;;;;;;13.70;9.00;;;;;;;-144.47;52.79;53231.50;5006367;28;20116;-68
2022/06/05 07:17:08;;;;;;;13.38;8.52;;;;;;;-144.47;52.94;53245.41;5024592;28;20458;-69
2022/06/05 07:19:33;;;;;;;14.68;7.65;;;;;;;-144.47;52.41;53233.47;5024174;28;20045;-69
2022/06/05 07:21:59;;;;;;;12.32;8.32;;;;;;;-144.47;52.26;53221.56;5006616;28;20025;-68
2022/06/05 07:24:24;;;;;;;15.23;9.40;;;;;;;-144.47;51.89;53235.47;5023983;28;20036;-68
2022/06/05 07:26:50;;;;;;;15.50;8.63;;;;;;;-144.47;52.42;53223.56;5028592;28;20037;-67
2022/06/05 07:29:15;;;;;;;15.68;8.30;;;;;;;-144.47;51.49;53223.56;5032688;28;20083;-67
2022/06/05 07:31:40;;;;;;;16.83;8.57;;;;;;;-144.47;51.12;53209.66;5029074;28;20116;-67
2022/06/05 07:34:07;;;;;;;14.23;8.45;;;;;;;-144.47;51.05;53241.44;5029338;28;20025;-68
2022/06/05 07:36:33;;;;;;;11.75;7.90;;;;;;;-144.47;50.97;53191.78;5029381;28;20021;-67
2022/06/05 07:39:02;;;;;;;13.63;8.20;;;;;;;-144.47;50.53;53207.66;5028466;28;20606;-67
2022/06/05 07:41:31;;;;;;;11.18;7.57;;;;;;;-144.47;50.49;53219.56;5028906;28;20518;-64
2022/06/05 07:43:57;;;;;;;12.07;8.13;;;;;;;-144.47;50.15;53217.59;5028246;28;20021;-67
2022/06/05 07:46:23;;;;;;;13.18;7.72;;;;;;;-144.47;49.91;53215.59;5028639;28;20545;-68
2022/06/05 07:48:48;;;;;;;15.75;8.52;;;;;;;-144.47;49.49;53185.81;5028737;28;20119;-65
2022/06/05 07:56:47;;;;;;;11.07;7.45;;;;;;;-144.47;48.98;53207.66;5028244;28;20115;-69
2022/06/05 07:59:13;;;;;;;11.70;8.10;;;;;;;-144.47;48.56;53217.59;5032623;28;20037;-68
2022/06/05 08:01:38;;;;;;;14.43;7.80;;;;;;;-144.47;48.58;53217.59;5010695;28;20099;-69
2022/06/05 08:04:04;;;;;;;12.52;6.78;;;;;;;-144.47;48.23;53219.56;5005246;28;20045;-68
2022/06/05 08:06:30;;;;;;;10.15;6.97;;;;;;;-144.47;48.23;53152.03;5005083;28;20022;-68
2022/06/05 08:08:56;;;;;;;12.05;7.13;;;;;;;-144.47;47.61;53163.97;5006462;28;20024;-67
2022/06/05 08:11:21;;;;;;;12.35;6.85;;;;;;;-144.47;47.41;53193.75;5025869;28;20021;-70
2022/06/05 08:13:47;;;;;;;11.98;7.20;;;;;;;-144.47;47.46;53231.50;5004805;28;20052;-68
2022/06/05 08:16:12;;;;;;;10.32;6.70;;;;;;;-144.47;47.94;53181.84;5008238;28;20080;-66
2022/06/05 08:18:39;;;;;;;10.15;6.68;;;;;;;-144.47;47.42;53201.69;5007843;28;20028;-68
2022/06/05 08:21:04;;;;;;;9.52;6.40;;;;;;;-144.47;46.60;53221.56;5006934;28;20059;-71
2022/06/05 08:23:30;;;;;;;11.32;7.05;;;;;;;-144.47;46.47;53187.78;5010452;28;20026;-68
2022/06/05 08:25:56;;;;;;;12.40;7.15;;;;;;;-144.47;46.80;53183.81;5004883;28;20033;-68
2022/06/05 08:28:24;;;;;;;12.95;7.03;;;;;;;-144.47;46.60;53175.88;5002394;28;20102;-67
2022/06/05 08:30:50;;;;;;;11.55;7.28;;;;;;;-144.47;46.78;53197.72;5005654;28;20878;-69
2022/06/05 08:33:17;;;;;;;10.05;6.88;;;;;;;-144.47;46.32;53191.78;5010716;28;20060;-70
2022/06/05 08:35:45;;;;;;;12.93;7.50;;;;;;;-144.47;46.79;53205.66;5033590;28;20033;-69
2022/06/05 08:41:28;;;;;;;9.40;6.38;;;;;;;-144.47;45.76;53197.72;5025912;28;20060;-68
2022/06/05 08:44:05;;;;;;;10.50;6.05;;;;;;;-144.47;45.93;53197.72;5001646;28;20034;-67
2022/06/05 08:46:43;;;;;;;9.23;6.70;;;;;;;-144.47;45.46;53152.03;5017853;28;20032;-69
2022/06/05 08:49:11;;;;;;;8.52;6.15;;;;;;;-144.47;44.98;53185.81;5031417;28;20021;-68
2022/06/05 08:52:13;;;;;;;13.63;6.60;;;;;;;-144.47;44.41;53161.97;5011448;28;20029;-67
2022/06/05 08:54:50;;;;;;;12.90;6.30;;;;;;;-144.47;44.07;53173.88;5009359;28;20048;-68
2022/06/05 08:57:37;;;;;;;9.07;5.50;;;;;;;-144.47;43.89;53171.91;5031254;28;20115;-67
2022/06/05 09:00:08;;;;;;;7.85;5.93;;;;;;;-144.47;43.48;53161.97;5028978;28;20434;-68
2022/06/05 09:02:42;;;;;;;11.02;5.90;;;;;;;-144.47;43.80;53158.00;5017816;28;20100;-69
2022/06/05 09:05:23;;;;;;;11.73;5.82;;;;;;;-144.47;43.55;53148.06;4981308;28;20499;-69
2022/06/05 09:07:52;;;;;;;17.30;5.88;;;;;;;-144.47;43.44;53171.91;5004428;28;20038;-66
2022/06/05 09:10:42;;;;;;;10.95;5.93;;;;;;;-144.47;43.14;53187.78;5003407;28;20121;-67
2022/06/05 09:13:32;;;;;;;10.23;5.65;;;;;;;-144.47;43.54;53167.94;5002539;28;20029;-68
2022/06/05 09:16:06;;;;;;;9.18;5.55;;;;;;;-144.47;43.37;53161.97;5004386;28;20045;-67
2022/06/05 09:18:36;;;;;;;10.07;6.05;;;;;;;-144.47;43.76;53179.84;5004998;28;20090;-67
2022/06/05 09:21:31;;;;;;;13.35;5.93;;;;;;;-144.47;43.73;53169.91;5003691;28;20045;-67
2022/06/05 09:24:20;;;;;;;8.50;5.57;;;;;;;-144.47;43.64;53181.84;5001054;28;20069;-67
2022/06/05 09:26:45;;;;;;;;;;;;;;;-144.47;43.98;53179.84;5004688;28;20767;-66
2022/06/05 09:29:19;;;;;;;10.05;5.45;;;;;;;-144.47;43.39;53169.91;5002661;28;19921;-69
2022/06/05 09:32:03;;;;;;;11.43;5.95;;;;;;;-144.47;43.46;53181.84;5003639;28;20030;-66
2022/06/05 09:34:38;;;;;;;11.55;5.57;;;;;;;-144.47;42.65;53181.84;5003653;28;20021;-69
2022/06/05 09:37:14;;;;;;;13.07;6.47;;;;;;;-144.47;42.74;53150.06;5001712;28;20053;-68
2022/06/05 09:39:51;;;;;;;10.38;6.32;;;;;;;-144.47;42.91;53150.06;5000812;28;20507;-69
2022/06/05 09:42:59;;;;;;;12.38;6.05;;;;;;;-144.47;43.59;53126.22;5002272;28;20065;-70
2022/06/05 09:45:42;;;;;;;8.93;5.60;;;;;;;-144.47;44.04;53146.09;5002284;28;20060;-67
2022/06/05 09:48:24;;;;;;;9.48;5.90;;;;;;;-144.47;43.35;53158.00;4985158;28;20069;-68
2022/06/05 09:50:51;;;;;;;10.35;6.20;;;;;;;-144.47;43.48;53132.19;5003905;28;20136;-70
2022/06/05 09:53:43;;;;;;;11.15;5.90;;;;;;;-144.47;43.01;53150.06;5002661;28;20072;-69
2022/06/05 09:56:28;;;;;;;10.55;6.80;;;;;;;-144.47;43.30;53126.22;5008918;28;20375;-68
2022/06/05 09:59:00;;;;;;;16.77;6.13;;;;;;;-144.47;43.19;53177.88;5013890;28;20045;-67
2022/06/05 10:01:28;;;;;;;13.10;6.07;;;;;;;-144.47;43.09;53124.22;5009424;28;20113;-66
2022/06/05 10:03:56;;;;;;;11.63;5.45;;;;;;;-144.47;42.83;53152.03;5010687;28;20074;-68
2022/06/05 10:06:37;;;;;;;8.25;5.18;;;;;;;-144.47;42.71;53154.03;4992797;28;20100;-67
2022/06/05 10:09:06;;;;;;;10.02;5.47;;;;;;;-144.47;42.39;53156.00;5022760;28;20053;-65
2022/06/05 10:11:40;;;;;;;8.35;6.13;;;;;;;-144.47;42.44;53161.97;5020652;28;20025;-67
2022/06/05 10:14:37;;;;;;;9.52;5.50;;;;;;;-144.47;42.23;53154.03;5008550;28;20030;-69
2022/06/05 10:17:30;;;;;;;12.45;6.22;;;;;;;-144.47;42.30;53110.31;5000609;28;20018;-67
2022/06/05 10:20:14;;;;;;;14.07;6.35;;;;;;;-144.47;41.80;53158.00;5010299;28;20022;-67
2022/06/05 10:22:39;;;;;;;9.63;5.78;;;;;;;-144.47;42.20;53146.09;5010572;28;20022;-67
2022/06/05 10:25:33;;;;;;;10.23;6.22;;;;;;;-144.47;42.17;53132.19;5010647;28;20100;-69
2022/06/05 10:28:16;;;;;;;7.80;5.65;;;;;;;-144.47;42.32;53169.91;5023187;28;20391;-67
2022/06/05 10:30:53;;;;;;;8.45;5.93;;;;;;;-144.47;41.93;53156.00;5021904;28;20033;-67
2022/06/05 10:33:44;;;;;;;10.80;6.13;;;;;;;-144.47;41.72;53110.31;5009994;28;20088;-68
2022/06/05 10:36:17;;;;;;;15.57;6.03;;;;;;;-144.47;41.47;53132.19;5021332;28;20539;-69
2022/06/05 10:38:59;;;;;;;7.82;5.43;;;;;;;-144.47;41.98;53130.19;5002125;28;20030;-69
2022/06/05 10:41:34;;;;;;;10.88;5.30;;;;;;;-144.47;41.07;53140.13;5024051;28;20104;-69
2022/06/05 10:44:34;;;;;;;8.10;5.07;;;;;;;-144.47;41.53;53165.94;5015090;28;20026;-69
2022/06/05 10:47:05;;;;;;;9.88;6.28;;;;;;;-144.47;41.61;53128.22;4990417;28;20075;-69
2022/06/05 10:49:58;;;;;;;9.80;6.63;;;;;;;-144.47;41.85;53130.19;5005067;28;20185;-69
2022/06/05 10:52:33;;;;;;;10.23;5.88;;;;;;;-144.47;41.69;53138.13;5006036;28;20029;-68
2022/06/05 10:55:26;;;;;;;9.63;5.55;;;;;;;-144.47;41.44;53160.00;5004637;28;20471;-69
2022/06/05 10:58:01;;;;;;;9.45;5.90;;;;;;;-144.47;41.41;53110.31;5008513;28;20033;-66
2022/06/05 11:00:38;;;;;;;10.48;6.07;;;;;;;-144.47;41.54;53126.22;5006013;28;20040;-69
2022/06/05 11:03:24;;;;;;;9.23;5.82;;;;;;;-144.47;40.92;53106.34;5022153;28;20025;-69
2022/06/05 11:06:08;;;;;;;10.93;6.30;;;;;;;-144.47;40.41;53146.09;5006368;28;20491;-69
2022/06/05 11:08:52;;;;;;;13.18;6.00;;;;;;;-144.47;39.81;53122.25;5011610;28;20714;-69
2022/06/05 11:14:56;;;;;;;10.75;4.97;;;;;;;-144.47;38.48;53146.09;5020653;28;20056;-68
2022/06/05 11:17:32;;;;;;;7.55;4.85;;;;;;;-144.47;38.07;53094.44;5021358;28;20096;-67
2022/06/05 11:20:13;;;;;;;9.10;4.78;;;;;;;-144.47;38.39;53124.22;5022231;28;20029;-69
2022/06/05 11:23:03;;;;;;;8.00;4.93;;;;;;;-144.47;38.21;53076.56;5001675;28;20122;-69
2022/06/05 11:25:41;;;;;;;6.68;4.88;;;;;;;-144.47;38.06;53112.31;5005728;28;20038;-67
2022/06/05 11:28:26;;;;;;;;;;;;;;;-144.47;38.15;53040.81;5015763;28;20022;-68
2022/06/05 11:31:27;;;;;;;11.48;5.13;;;;;;;-144.47;37.59;53076.56;4997978;28;19910;-68
2022/06/05 11:34:14;;;;;;;7.30;4.82;;;;;;;-144.47;37.03;53142.09;4930093;29;20077;-68
2022/06/05 11:36:48;;;;;;;9.30;4.68;;;;;;;-144.47;36.99;53094.44;5004523;28;20125;-66
2022/06/05 11:39:37;;;;;;;9.75;5.00;;;;;;;-144.47;37.28;53086.50;5008958;28;20053;-70
2022/06/05 11:42:30;;;;;;;10.82;4.60;;;;;;;-144.47;37.15;53128.22;5004400;28;20383;-69
2022/06/05 11:45:15;;;;;;;6.97;4.70;;;;;;;-144.47;37.20;53096.41;5008343;28;20034;-70
2022/06/05 11:48:00;;;;;;;10.98;4.85;;;;;;;-144.47;37.20;53088.47;5008206;28;20120;-68